sensor_id;sensor_type;location;lat;lon;timestamp;P1;durP1;ratioP1;P2;durP2;ratioP2
5890;SDS011;2971;52.420;7.080;2023-05-24T00:01:40;21.53;;;7.67;;
5890;SDS011;2971;52.420;7.080;2023-05-24T00:04:06;23.07;;;8.10;;
5890;SDS011;2971;52.420;7.080;2023-05-24T00:06:32;17.50;;;6.07;;
5890;SDS011;2971;52.420;7.080;2023-05-24T00:09:01;30.77;;;6.87;;
5890;SDS011;2971;52.420;7.080;2023-05-24T00:11:29;25.13;;;6.80;;
5890;SDS011;2971;52.420;7.080;2023-05-24T00:13:55;24.73;;;6.80;;
5890;SDS011;2971;52.420;7.080;2023-05-24T00:16:20;23.67;;;7.97;;
5890;SDS011;2971;52.420;7.080;2023-05-24T00:18:47;23.47;;;6.60;;
5890;SDS011;2971;52.420;7.080;2023-05-24T00:21:13;21.97;;;6.67;;
5890;SDS011;2971;52.420;7.080;2023-05-24T00:23:38;25.67;;;7.07;;
5890;SDS011;2971;52.420;7.080;2023-05-24T00:26:06;27.10;;;8.27;;
5890;SDS011;2971;52.420;7.080;2023-05-24T00:28:32;22.93;;;7.40;;
5890;SDS011;2971;52.420;7.080;2023-05-24T00:30:57;25.00;;;7.53;;
5890;SDS011;2971;52.420;7.080;2023-05-24T00:33:23;28.30;;;9.67;;
5890;SDS011;2971;52.420;7.080;2023-05-24T00:35:49;26.07;;;7.37;;
5890;SDS011;2971;52.420;7.080;2023-05-24T00:38:20;29.47;;;8.50;;
5890;SDS011;2971;52.420;7.080;2023-05-24T00:40:46;31.27;;;8.63;;
5890;SDS011;2971;52.420;7.080;2023-05-24T00:43:12;30.40;;;9.10;;
5890;SDS011;2971;52.420;7.080;2023-05-24T00:45:38;24.00;;;8.60;;
5890;SDS011;2971;52.420;7.080;2023-05-24T00:48:03;26.70;;;8.93;;
5890;SDS011;2971;52.420;7.080;2023-05-24T00:50:29;25.50;;;9.13;;
5890;SDS011;2971;52.420;7.080;2023-05-24T00:52:54;27.30;;;8.90;;
5890;SDS011;2971;52.420;7.080;2023-05-24T00:55:20;29.43;;;8.80;;
5890;SDS011;2971;52.420;7.080;2023-05-24T00:57:48;29.10;;;9.07;;
5890;SDS011;2971;52.420;7.080;2023-05-24T01:00:16;31.37;;;9.30;;
5890;SDS011;2971;52.420;7.080;2023-05-24T01:02:41;24.93;;;8.47;;
5890;SDS011;2971;52.420;7.080;2023-05-24T01:05:07;22.13;;;8.20;;
5890;SDS011;2971;52.420;7.080;2023-05-24T01:07:36;25.37;;;8.33;;
5890;SDS011;2971;52.420;7.080;2023-05-24T01:10:11;27.57;;;8.03;;
5890;SDS011;2971;52.420;7.080;2023-05-24T01:18:12;30.00;;;9.00;;
5890;SDS011;2971;52.420;7.080;2023-05-24T01:20:40;40.40;;;8.83;;
5890;SDS011;2971;52.420;7.080;2023-05-24T01:23:14;34.10;;;8.80;;
5890;SDS011;2971;52.420;7.080;2023-05-24T01:28:43;24.67;;;8.63;;
5890;SDS011;2971;52.420;7.080;2023-05-24T01:31:10;33.57;;;8.77;;
5890;SDS011;2971;52.420;7.080;2023-05-24T01:33:43;30.40;;;9.63;;
5890;SDS011;2971;52.420;7.080;2023-05-24T01:36:09;23.70;;;8.63;;
5890;SDS011;2971;52.420;7.080;2023-05-24T01:38:35;32.43;;;11.07;;
5890;SDS011;2971;52.420;7.080;2023-05-24T01:41:04;31.97;;;9.23;;
5890;SDS011;2971;52.420;7.080;2023-05-24T01:43:39;31.43;;;9.87;;
5890;SDS011;2971;52.420;7.080;2023-05-24T01:51:09;29.50;;;9.50;;
5890;SDS011;2971;52.420;7.080;2023-05-24T01:53:39;30.67;;;8.53;;
5890;SDS011;2971;52.420;7.080;2023-05-24T01:56:06;30.37;;;9.30;;
5890;SDS011;2971;52.420;7.080;2023-05-24T01:58:32;34.17;;;9.97;;
5890;SDS011;2971;52.420;7.080;2023-05-24T02:00:58;38.10;;;9.87;;
5890;SDS011;2971;52.420;7.080;2023-05-24T02:03:24;28.83;;;9.97;;
5890;SDS011;2971;52.420;7.080;2023-05-24T02:05:49;32.40;;;9.73;;
5890;SDS011;2971;52.420;7.080;2023-05-24T02:08:15;29.57;;;9.70;;
5890;SDS011;2971;52.420;7.080;2023-05-24T02:10:40;31.37;;;9.27;;
5890;SDS011;2971;52.420;7.080;2023-05-24T02:13:06;29.07;;;10.00;;
5890;SDS011;2971;52.420;7.080;2023-05-24T02:15:32;28.60;;;9.60;;
5890;SDS011;2971;52.420;7.080;2023-05-24T02:17:59;28.50;;;9.37;;
5890;SDS011;2971;52.420;7.080;2023-05-24T02:20:25;31.00;;;9.93;;
5890;SDS011;2971;52.420;7.080;2023-05-24T02:23:00;28.33;;;9.67;;
5890;SDS011;2971;52.420;7.080;2023-05-24T02:25:26;25.57;;;9.03;;
5890;SDS011;2971;52.420;7.080;2023-05-24T02:27:51;29.67;;;9.63;;
5890;SDS011;2971;52.420;7.080;2023-05-24T02:30:17;30.30;;;11.83;;
5890;SDS011;2971;52.420;7.080;2023-05-24T02:32:42;27.63;;;9.57;;
5890;SDS011;2971;52.420;7.080;2023-05-24T02:35:09;27.20;;;9.00;;
5890;SDS011;2971;52.420;7.080;2023-05-24T02:37:34;27.17;;;9.10;;
5890;SDS011;2971;52.420;7.080;2023-05-24T02:40:00;30.87;;;10.30;;
5890;SDS011;2971;52.420;7.080;2023-05-24T02:42:25;31.50;;;10.20;;
5890;SDS011;2971;52.420;7.080;2023-05-24T02:44:51;33.50;;;9.80;;
5890;SDS011;2971;52.420;7.080;2023-05-24T02:47:19;26.60;;;9.07;;
5890;SDS011;2971;52.420;7.080;2023-05-24T02:49:44;26.37;;;9.07;;
5890;SDS011;2971;52.420;7.080;2023-05-24T02:52:10;35.43;;;9.67;;
5890;SDS011;2971;52.420;7.080;2023-05-24T02:54:35;28.80;;;8.80;;
5890;SDS011;2971;52.420;7.080;2023-05-24T02:57:01;29.13;;;9.27;;
5890;SDS011;2971;52.420;7.080;2023-05-24T02:59:27;27.63;;;9.93;;
5890;SDS011;2971;52.420;7.080;2023-05-24T03:01:52;28.20;;;9.40;;
5890;SDS011;2971;52.420;7.080;2023-05-24T03:04:18;27.93;;;8.70;;
5890;SDS011;2971;52.420;7.080;2023-05-24T03:06:43;25.10;;;9.53;;
5890;SDS011;2971;52.420;7.080;2023-05-24T03:09:09;31.30;;;9.80;;
5890;SDS011;2971;52.420;7.080;2023-05-24T03:11:34;32.63;;;9.83;;
5890;SDS011;2971;52.420;7.080;2023-05-24T03:14:00;30.67;;;10.30;;
5890;SDS011;2971;52.420;7.080;2023-05-24T03:16:25;31.63;;;9.23;;
5890;SDS011;2971;52.420;7.080;2023-05-24T03:18:50;30.77;;;9.83;;
5890;SDS011;2971;52.420;7.080;2023-05-24T03:21:19;30.87;;;9.83;;
5890;SDS011;2971;52.420;7.080;2023-05-24T03:23:44;24.23;;;9.03;;
5890;SDS011;2971;52.420;7.080;2023-05-24T03:26:10;34.37;;;9.77;;
5890;SDS011;2971;52.420;7.080;2023-05-24T03:28:37;29.27;;;9.77;;
5890;SDS011;2971;52.420;7.080;2023-05-24T03:31:02;29.40;;;9.23;;
5890;SDS011;2971;52.420;7.080;2023-05-24T03:33:28;31.33;;;9.83;;
5890;SDS011;2971;52.420;7.080;2023-05-24T03:35:53;31.67;;;10.00;;
5890;SDS011;2971;52.420;7.080;2023-05-24T03:38:19;34.43;;;10.03;;
5890;SDS011;2971;52.420;7.080;2023-05-24T03:40:44;30.13;;;10.33;;
5890;SDS011;2971;52.420;7.080;2023-05-24T03:43:10;32.47;;;10.03;;
5890;SDS011;2971;52.420;7.080;2023-05-24T03:45:36;31.43;;;10.13;;
5890;SDS011;2971;52.420;7.080;2023-05-24T03:48:01;34.60;;;10.63;;
5890;SDS011;2971;52.420;7.080;2023-05-24T03:50:27;33.63;;;10.53;;
5890;SDS011;2971;52.420;7.080;2023-05-24T03:52:52;34.77;;;10.67;;
5890;SDS011;2971;52.420;7.080;2023-05-24T03:55:18;33.63;;;10.87;;
5890;SDS011;2971;52.420;7.080;2023-05-24T03:57:43;37.33;;;10.33;;
5890;SDS011;2971;52.420;7.080;2023-05-24T04:00:09;27.33;;;11.03;;
5890;SDS011;2971;52.420;7.080;2023-05-24T04:02:34;27.93;;;10.20;;
5890;SDS011;2971;52.420;7.080;2023-05-24T04:05:02;38.17;;;11.10;;
5890;SDS011;2971;52.420;7.080;2023-05-24T04:07:28;31.70;;;9.97;;
5890;SDS011;2971;52.420;7.080;2023-05-24T04:09:58;27.77;;;10.40;;
5890;SDS011;2971;52.420;7.080;2023-05-24T04:12:23;33.97;;;10.93;;
5890;SDS011;2971;52.420;7.080;2023-05-24T04:14:50;37.13;;;12.63;;
5890;SDS011;2971;52.420;7.080;2023-05-24T04:17:16;35.60;;;11.93;;
5890;SDS011;2971;52.420;7.080;2023-05-24T04:19:42;33.20;;;10.23;;
5890;SDS011;2971;52.420;7.080;2023-05-24T04:22:07;32.30;;;10.57;;
5890;SDS011;2971;52.420;7.080;2023-05-24T04:24:33;29.37;;;10.60;;
5890;SDS011;2971;52.420;7.080;2023-05-24T04:26:58;37.30;;;11.03;;
5890;SDS011;2971;52.420;7.080;2023-05-24T04:29:24;30.43;;;12.73;;
5890;SDS011;2971;52.420;7.080;2023-05-24T04:31:51;34.63;;;10.93;;
5890;SDS011;2971;52.420;7.080;2023-05-24T04:34:17;31.13;;;10.07;;
5890;SDS011;2971;52.420;7.080;2023-05-24T04:36:42;34.07;;;11.07;;
5890;SDS011;2971;52.420;7.080;2023-05-24T04:39:07;27.33;;;10.37;;
5890;SDS011;2971;52.420;7.080;2023-05-24T04:41:33;29.37;;;10.63;;
5890;SDS011;2971;52.420;7.080;2023-05-24T04:44:01;28.33;;;10.43;;
5890;SDS011;2971;52.420;7.080;2023-05-24T04:46:26;34.83;;;11.03;;
5890;SDS011;2971;52.420;7.080;2023-05-24T04:48:52;30.20;;;10.37;;
5890;SDS011;2971;52.420;7.080;2023-05-24T04:51:18;25.70;;;10.27;;
5890;SDS011;2971;52.420;7.080;2023-05-24T04:53:44;33.17;;;10.43;;
5890;SDS011;2971;52.420;7.080;2023-05-24T04:56:09;29.33;;;11.40;;
5890;SDS011;2971;52.420;7.080;2023-05-24T04:58:38;25.93;;;10.27;;
5890;SDS011;2971;52.420;7.080;2023-05-24T05:01:04;27.53;;;11.03;;
5890;SDS011;2971;52.420;7.080;2023-05-24T05:03:29;29.50;;;10.17;;
5890;SDS011;2971;52.420;7.080;2023-05-24T05:05:55;23.20;;;9.73;;
5890;SDS011;2971;52.420;7.080;2023-05-24T05:08:20;27.33;;;10.47;;
5890;SDS011;2971;52.420;7.080;2023-05-24T05:10:47;25.07;;;9.97;;
5890;SDS011;2971;52.420;7.080;2023-05-24T05:13:12;28.43;;;9.83;;
5890;SDS011;2971;52.420;7.080;2023-05-24T05:15:38;22.17;;;9.47;;
5890;SDS011;2971;52.420;7.080;2023-05-24T05:18:03;24.00;;;9.37;;
5890;SDS011;2971;52.420;7.080;2023-05-24T05:20:28;27.37;;;9.87;;
5890;SDS011;2971;52.420;7.080;2023-05-24T05:22:54;29.40;;;9.37;;
5890;SDS011;2971;52.420;7.080;2023-05-24T05:25:19;22.43;;;9.00;;
5890;SDS011;2971;52.420;7.080;2023-05-24T05:27:45;27.03;;;9.97;;
5890;SDS011;2971;52.420;7.080;2023-05-24T05:30:10;26.97;;;9.30;;
5890;SDS011;2971;52.420;7.080;2023-05-24T05:32:36;24.17;;;9.00;;
5890;SDS011;2971;52.420;7.080;2023-05-24T05:35:02;26.57;;;9.53;;
5890;SDS011;2971;52.420;7.080;2023-05-24T05:37:28;27.13;;;9.30;;
5890;SDS011;2971;52.420;7.080;2023-05-24T05:39:55;29.90;;;9.40;;
5890;SDS011;2971;52.420;7.080;2023-05-24T05:42:20;29.97;;;9.37;;
5890;SDS011;2971;52.420;7.080;2023-05-24T05:44:45;26.83;;;8.83;;
5890;SDS011;2971;52.420;7.080;2023-05-24T05:47:11;29.93;;;9.37;;
5890;SDS011;2971;52.420;7.080;2023-05-24T05:49:36;23.10;;;8.70;;
5890;SDS011;2971;52.420;7.080;2023-05-24T05:52:03;28.13;;;9.20;;
5890;SDS011;2971;52.420;7.080;2023-05-24T05:54:29;23.90;;;9.07;;
5890;SDS011;2971;52.420;7.080;2023-05-24T05:56:55;28.00;;;8.97;;
5890;SDS011;2971;52.420;7.080;2023-05-24T05:59:20;27.80;;;8.63;;
5890;SDS011;2971;52.420;7.080;2023-05-24T06:01:46;25.77;;;9.07;;
5890;SDS011;2971;52.420;7.080;2023-05-24T06:04:12;25.60;;;8.97;;
5890;SDS011;2971;52.420;7.080;2023-05-24T06:06:38;25.60;;;8.53;;
5890;SDS011;2971;52.420;7.080;2023-05-24T06:09:04;28.73;;;8.63;;
5890;SDS011;2971;52.420;7.080;2023-05-24T06:11:30;25.70;;;8.77;;
5890;SDS011;2971;52.420;7.080;2023-05-24T06:13:55;21.87;;;8.47;;
5890;SDS011;2971;52.420;7.080;2023-05-24T06:16:21;17.47;;;7.87;;
5890;SDS011;2971;52.420;7.080;2023-05-24T06:18:46;26.23;;;8.33;;
5890;SDS011;2971;52.420;7.080;2023-05-24T06:21:13;21.83;;;7.60;;
5890;SDS011;2971;52.420;7.080;2023-05-24T06:23:39;21.77;;;7.50;;
5890;SDS011;2971;52.420;7.080;2023-05-24T06:26:05;19.03;;;7.20;;
5890;SDS011;2971;52.420;7.080;2023-05-24T06:28:32;21.60;;;7.93;;
5890;SDS011;2971;52.420;7.080;2023-05-24T06:30:58;22.07;;;8.03;;
5890;SDS011;2971;52.420;7.080;2023-05-24T06:33:23;20.57;;;7.27;;
5890;SDS011;2971;52.420;7.080;2023-05-24T06:35:48;23.70;;;7.53;;
5890;SDS011;2971;52.420;7.080;2023-05-24T06:38:14;20.93;;;7.57;;
5890;SDS011;2971;52.420;7.080;2023-05-24T06:40:41;21.60;;;7.60;;
5890;SDS011;2971;52.420;7.080;2023-05-24T06:43:06;23.63;;;7.43;;
5890;SDS011;2971;52.420;7.080;2023-05-24T06:45:32;21.60;;;7.47;;
5890;SDS011;2971;52.420;7.080;2023-05-24T06:47:57;20.53;;;8.00;;
5890;SDS011;2971;52.420;7.080;2023-05-24T06:50:22;25.40;;;8.00;;
5890;SDS011;2971;52.420;7.080;2023-05-24T06:52:48;23.73;;;7.63;;
5890;SDS011;2971;52.420;7.080;2023-05-24T06:55:13;20.93;;;6.73;;
5890;SDS011;2971;52.420;7.080;2023-05-24T06:57:39;19.47;;;6.63;;
5890;SDS011;2971;52.420;7.080;2023-05-24T07:00:05;18.83;;;6.70;;
5890;SDS011;2971;52.420;7.080;2023-05-24T07:02:40;21.40;;;7.40;;
5890;SDS011;2971;52.420;7.080;2023-05-24T07:05:06;20.77;;;7.00;;
5890;SDS011;2971;52.420;7.080;2023-05-24T07:07:39;22.53;;;7.20;;
5890;SDS011;2971;52.420;7.080;2023-05-24T07:10:06;19.53;;;6.63;;
5890;SDS011;2971;52.420;7.080;2023-05-24T07:12:33;17.00;;;6.83;;
5890;SDS011;2971;52.420;7.080;2023-05-24T07:14:58;20.87;;;6.70;;
5890;SDS011;2971;52.420;7.080;2023-05-24T07:17:23;18.00;;;6.57;;
5890;SDS011;2971;52.420;7.080;2023-05-24T07:19:49;19.87;;;6.40;;
5890;SDS011;2971;52.420;7.080;2023-05-24T07:22:15;23.83;;;7.70;;
5890;SDS011;2971;52.420;7.080;2023-05-24T07:24:40;20.17;;;6.63;;
5890;SDS011;2971;52.420;7.080;2023-05-24T07:27:06;19.07;;;6.03;;
5890;SDS011;2971;52.420;7.080;2023-05-24T07:29:31;17.03;;;6.57;;
5890;SDS011;2971;52.420;7.080;2023-05-24T07:31:57;22.40;;;6.47;;
5890;SDS011;2971;52.420;7.080;2023-05-24T07:34:22;20.17;;;6.13;;
5890;SDS011;2971;52.420;7.080;2023-05-24T07:36:51;16.83;;;6.73;;
5890;SDS011;2971;52.420;7.080;2023-05-24T07:39:17;18.63;;;6.20;;
5890;SDS011;2971;52.420;7.080;2023-05-24T07:41:43;18.87;;;6.43;;
5890;SDS011;2971;52.420;7.080;2023-05-24T07:44:08;19.30;;;5.80;;
5890;SDS011;2971;52.420;7.080;2023-05-24T07:46:34;20.63;;;6.70;;
5890;SDS011;2971;52.420;7.080;2023-05-24T07:48:59;13.40;;;5.80;;
5890;SDS011;2971;52.420;7.080;2023-05-24T07:51:25;15.47;;;5.50;;
5890;SDS011;2971;52.420;7.080;2023-05-24T07:53:50;20.17;;;5.87;;
5890;SDS011;2971;52.420;7.080;2023-05-24T07:56:16;18.40;;;5.90;;
5890;SDS011;2971;52.420;7.080;2023-05-24T07:58:42;16.57;;;5.37;;
5890;SDS011;2971;52.420;7.080;2023-05-24T08:01:10;14.20;;;5.40;;
5890;SDS011;2971;52.420;7.080;2023-05-24T08:03:37;15.33;;;5.63;;
5890;SDS011;2971;52.420;7.080;2023-05-24T08:06:03;14.53;;;5.50;;
5890;SDS011;2971;52.420;7.080;2023-05-24T08:08:29;15.77;;;5.83;;
5890;SDS011;2971;52.420;7.080;2023-05-24T08:10:55;18.17;;;5.80;;
5890;SDS011;2971;52.420;7.080;2023-05-24T08:13:20;16.67;;;5.83;;
5890;SDS011;2971;52.420;7.080;2023-05-24T08:15:46;18.80;;;5.63;;
5890;SDS011;2971;52.420;7.080;2023-05-24T08:18:11;17.40;;;6.00;;
5890;SDS011;2971;52.420;7.080;2023-05-24T08:20:37;17.97;;;6.07;;
5890;SDS011;2971;52.420;7.080;2023-05-24T08:23:02;17.30;;;6.47;;
5890;SDS011;2971;52.420;7.080;2023-05-24T08:25:28;18.50;;;6.50;;
5890;SDS011;2971;52.420;7.080;2023-05-24T08:27:53;20.40;;;6.13;;
5890;SDS011;2971;52.420;7.080;2023-05-24T08:30:21;17.57;;;5.63;;
5890;SDS011;2971;52.420;7.080;2023-05-24T08:32:47;18.43;;;6.20;;
5890;SDS011;2971;52.420;7.080;2023-05-24T08:35:12;13.50;;;5.57;;
5890;SDS011;2971;52.420;7.080;2023-05-24T08:37:38;18.27;;;6.13;;
5890;SDS011;2971;52.420;7.080;2023-05-24T08:40:03;16.80;;;5.43;;
5890;SDS011;2971;52.420;7.080;2023-05-24T08:42:29;18.73;;;6.00;;
5890;SDS011;2971;52.420;7.080;2023-05-24T08:45:17;17.50;;;5.73;;
5890;SDS011;2971;52.420;7.080;2023-05-24T08:47:41;18.80;;;5.97;;
5890;SDS011;2971;52.420;7.080;2023-05-24T08:50:07;20.03;;;6.13;;
5890;SDS011;2971;52.420;7.080;2023-05-24T08:52:33;17.60;;;6.33;;
5890;SDS011;2971;52.420;7.080;2023-05-24T08:54:58;17.30;;;5.40;;
5890;SDS011;2971;52.420;7.080;2023-05-24T08:57:27;17.33;;;6.10;;
5890;SDS011;2971;52.420;7.080;2023-05-24T08:59:54;18.77;;;5.93;;
5890;SDS011;2971;52.420;7.080;2023-05-24T09:02:20;16.03;;;5.73;;
5890;SDS011;2971;52.420;7.080;2023-05-24T09:04:47;18.93;;;5.90;;
5890;SDS011;2971;52.420;7.080;2023-05-24T09:07:15;15.47;;;5.53;;
5890;SDS011;2971;52.420;7.080;2023-05-24T09:09:42;16.37;;;5.43;;
5890;SDS011;2971;52.420;7.080;2023-05-24T09:12:13;17.47;;;5.90;;
5890;SDS011;2971;52.420;7.080;2023-05-24T09:14:44;16.30;;;5.20;;
5890;SDS011;2971;52.420;7.080;2023-05-24T09:17:13;14.13;;;5.83;;
5890;SDS011;2971;52.420;7.080;2023-05-24T09:19:44;13.53;;;5.87;;
5890;SDS011;2971;52.420;7.080;2023-05-24T09:22:13;16.47;;;6.40;;
5890;SDS011;2971;52.420;7.080;2023-05-24T09:24:40;19.17;;;6.03;;
5890;SDS011;2971;52.420;7.080;2023-05-24T09:27:06;15.53;;;5.60;;
5890;SDS011;2971;52.420;7.080;2023-05-24T09:29:34;17.00;;;5.60;;
5890;SDS011;2971;52.420;7.080;2023-05-24T09:32:00;14.27;;;5.13;;
5890;SDS011;2971;52.420;7.080;2023-05-24T09:34:28;16.30;;;5.77;;
5890;SDS011;2971;52.420;7.080;2023-05-24T09:36:53;15.30;;;4.97;;
5890;SDS011;2971;52.420;7.080;2023-05-24T09:39:20;15.13;;;5.63;;
5890;SDS011;2971;52.420;7.080;2023-05-24T09:41:49;16.20;;;4.97;;
5890;SDS011;2971;52.420;7.080;2023-05-24T09:44:23;17.53;;;5.23;;
5890;SDS011;2971;52.420;7.080;2023-05-24T09:46:48;11.57;;;4.50;;
5890;SDS011;2971;52.420;7.080;2023-05-24T09:49:14;14.77;;;5.27;;
5890;SDS011;2971;52.420;7.080;2023-05-24T09:51:39;14.60;;;4.77;;
5890;SDS011;2971;52.420;7.080;2023-05-24T09:54:05;14.87;;;5.30;;
5890;SDS011;2971;52.420;7.080;2023-05-24T09:56:32;14.27;;;5.27;;
5890;SDS011;2971;52.420;7.080;2023-05-24T09:58:57;14.70;;;5.30;;
5890;SDS011;2971;52.420;7.080;2023-05-24T10:01:23;13.83;;;4.80;;
5890;SDS011;2971;52.420;7.080;2023-05-24T10:03:50;15.50;;;5.73;;
5890;SDS011;2971;52.420;7.080;2023-05-24T10:06:19;14.77;;;5.03;;
5890;SDS011;2971;52.420;7.080;2023-05-24T10:08:48;10.53;;;4.90;;
5890;SDS011;2971;52.420;7.080;2023-05-24T10:11:14;12.03;;;5.07;;
5890;SDS011;2971;52.420;7.080;2023-05-24T10:13:40;10.20;;;4.67;;
5890;SDS011;2971;52.420;7.080;2023-05-24T10:16:06;14.43;;;4.80;;
5890;SDS011;2971;52.420;7.080;2023-05-24T10:18:31;11.30;;;4.57;;
5890;SDS011;2971;52.420;7.080;2023-05-24T10:20:57;13.43;;;4.63;;
5890;SDS011;2971;52.420;7.080;2023-05-24T10:23:25;14.03;;;4.90;;
5890;SDS011;2971;52.420;7.080;2023-05-24T10:26:12;10.30;;;4.40;;
5890;SDS011;2971;52.420;7.080;2023-05-24T10:28:48;13.27;;;5.00;;
5890;SDS011;2971;52.420;7.080;2023-05-24T10:31:18;14.57;;;5.30;;
5890;SDS011;2971;52.420;7.080;2023-05-24T10:33:48;11.57;;;4.97;;
5890;SDS011;2971;52.420;7.080;2023-05-24T10:36:16;11.53;;;4.80;;
5890;SDS011;2971;52.420;7.080;2023-05-24T10:38:44;12.50;;;5.23;;
5890;SDS011;2971;52.420;7.080;2023-05-24T10:41:10;11.27;;;4.73;;
5890;SDS011;2971;52.420;7.080;2023-05-24T10:43:37;13.20;;;4.77;;
5890;SDS011;2971;52.420;7.080;2023-05-24T10:46:03;13.37;;;4.50;;
5890;SDS011;2971;52.420;7.080;2023-05-24T10:48:30;12.17;;;4.33;;
5890;SDS011;2971;52.420;7.080;2023-05-24T10:50:56;11.67;;;4.57;;
5890;SDS011;2971;52.420;7.080;2023-05-24T10:53:25;12.70;;;4.63;;
5890;SDS011;2971;52.420;7.080;2023-05-24T10:58:21;11.40;;;4.70;;
5890;SDS011;2971;52.420;7.080;2023-05-24T11:00:51;13.87;;;5.07;;
5890;SDS011;2971;52.420;7.080;2023-05-24T11:03:17;11.53;;;4.63;;
5890;SDS011;2971;52.420;7.080;2023-05-24T11:08:29;12.00;;;4.50;;
5890;SDS011;2971;52.420;7.080;2023-05-24T11:13:36;11.73;;;4.83;;
5890;SDS011;2971;52.420;7.080;2023-05-24T11:16:03;12.60;;;4.67;;
5890;SDS011;2971;52.420;7.080;2023-05-24T11:18:29;11.30;;;4.40;;
5890;SDS011;2971;52.420;7.080;2023-05-24T11:20:54;14.13;;;5.03;;
5890;SDS011;2971;52.420;7.080;2023-05-24T11:23:21;14.07;;;5.07;;
5890;SDS011;2971;52.420;7.080;2023-05-24T11:25:47;11.60;;;4.93;;
5890;SDS011;2971;52.420;7.080;2023-05-24T11:28:12;10.33;;;4.20;;
5890;SDS011;2971;52.420;7.080;2023-05-24T11:30:42;12.80;;;4.37;;
5890;SDS011;2971;52.420;7.080;2023-05-24T11:33:16;10.47;;;4.57;;
5890;SDS011;2971;52.420;7.080;2023-05-24T11:35:43;9.13;;;3.97;;
5890;SDS011;2971;52.420;7.080;2023-05-24T11:38:09;8.63;;;3.77;;
5890;SDS011;2971;52.420;7.080;2023-05-24T11:40:37;11.10;;;4.00;;
5890;SDS011;2971;52.420;7.080;2023-05-24T11:43:09;10.70;;;3.30;;
5890;SDS011;2971;52.420;7.080;2023-05-24T11:45:40;15.67;;;3.67;;
5890;SDS011;2971;52.420;7.080;2023-05-24T11:48:07;11.30;;;3.97;;
5890;SDS011;2971;52.420;7.080;2023-05-24T11:50:36;10.50;;;3.97;;
5890;SDS011;2971;52.420;7.080;2023-05-24T11:53:05;9.33;;;3.97;;
5890;SDS011;2971;52.420;7.080;2023-05-24T11:55:33;9.00;;;3.13;;
5890;SDS011;2971;52.420;7.080;2023-05-24T11:57:59;9.77;;;3.40;;
5890;SDS011;2971;52.420;7.080;2023-05-24T12:00:26;11.60;;;3.77;;
5890;SDS011;2971;52.420;7.080;2023-05-24T12:02:54;8.80;;;3.97;;
5890;SDS011;2971;52.420;7.080;2023-05-24T12:05:20;10.50;;;3.63;;
5890;SDS011;2971;52.420;7.080;2023-05-24T12:07:46;11.43;;;4.10;;
5890;SDS011;2971;52.420;7.080;2023-05-24T12:10:13;8.07;;;3.53;;
5890;SDS011;2971;52.420;7.080;2023-05-24T12:12:43;10.70;;;3.50;;
5890;SDS011;2971;52.420;7.080;2023-05-24T12:15:11;11.97;;;4.00;;
5890;SDS011;2971;52.420;7.080;2023-05-24T12:17:38;9.73;;;3.50;;
5890;SDS011;2971;52.420;7.080;2023-05-24T12:20:05;7.77;;;3.43;;
5890;SDS011;2971;52.420;7.080;2023-05-24T12:22:31;8.70;;;4.40;;
5890;SDS011;2971;52.420;7.080;2023-05-24T12:24:57;7.63;;;3.57;;
5890;SDS011;2971;52.420;7.080;2023-05-24T12:27:29;10.97;;;4.27;;
5890;SDS011;2971;52.420;7.080;2023-05-24T12:29:55;7.33;;;3.17;;
5890;SDS011;2971;52.420;7.080;2023-05-24T12:32:30;9.63;;;3.60;;
5890;SDS011;2971;52.420;7.080;2023-05-24T12:34:55;8.63;;;3.30;;
5890;SDS011;2971;52.420;7.080;2023-05-24T12:37:21;12.03;;;3.80;;
5890;SDS011;2971;52.420;7.080;2023-05-24T12:39:46;12.80;;;3.83;;
5890;SDS011;2971;52.420;7.080;2023-05-24T12:42:11;9.37;;;3.40;;
5890;SDS011;2971;52.420;7.080;2023-05-24T12:44:37;14.90;;;4.00;;
5890;SDS011;2971;52.420;7.080;2023-05-24T12:47:04;14.80;;;4.23;;
5890;SDS011;2971;52.420;7.080;2023-05-24T12:49:30;10.93;;;3.83;;
5890;SDS011;2971;52.420;7.080;2023-05-24T12:51:56;9.23;;;3.47;;
5890;SDS011;2971;52.420;7.080;2023-05-24T12:54:22;7.77;;;3.20;;
5890;SDS011;2971;52.420;7.080;2023-05-24T12:56:49;8.37;;;3.47;;
5890;SDS011;2971;52.420;7.080;2023-05-24T12:59:15;10.30;;;2.97;;
5890;SDS011;2971;52.420;7.080;2023-05-24T13:01:40;8.17;;;3.23;;
5890;SDS011;2971;52.420;7.080;2023-05-24T13:04:06;8.47;;;3.53;;
5890;SDS011;2971;52.420;7.080;2023-05-24T13:06:34;9.43;;;3.60;;
5890;SDS011;2971;52.420;7.080;2023-05-24T13:09:01;6.93;;;3.37;;
5890;SDS011;2971;52.420;7.080;2023-05-24T13:11:27;7.50;;;3.20;;
5890;SDS011;2971;52.420;7.080;2023-05-24T13:13:55;7.67;;;3.00;;
5890;SDS011;2971;52.420;7.080;2023-05-24T13:16:21;11.27;;;4.13;;
5890;SDS011;2971;52.420;7.080;2023-05-24T13:18:47;8.43;;;3.57;;
5890;SDS011;2971;52.420;7.080;2023-05-24T13:21:13;9.57;;;3.80;;
5890;SDS011;2971;52.420;7.080;2023-05-24T13:23:38;11.13;;;3.30;;
5890;SDS011;2971;52.420;7.080;2023-05-24T13:26:04;11.57;;;3.77;;
5890;SDS011;2971;52.420;7.080;2023-05-24T13:28:31;9.40;;;4.00;;
5890;SDS011;2971;52.420;7.080;2023-05-24T13:30:57;9.73;;;3.80;;
5890;SDS011;2971;52.420;7.080;2023-05-24T13:33:23;11.57;;;3.77;;
5890;SDS011;2971;52.420;7.080;2023-05-24T13:35:48;9.27;;;3.10;;
5890;SDS011;2971;52.420;7.080;2023-05-24T13:38:14;7.47;;;3.50;;
5890;SDS011;2971;52.420;7.080;2023-05-24T13:40:39;9.60;;;3.47;;
5890;SDS011;2971;52.420;7.080;2023-05-24T13:43:04;10.63;;;3.67;;
5890;SDS011;2971;52.420;7.080;2023-05-24T13:45:30;8.23;;;3.00;;
5890;SDS011;2971;52.420;7.080;2023-05-24T13:47:57;9.30;;;3.20;;
5890;SDS011;2971;52.420;7.080;2023-05-24T13:50:29;9.07;;;3.77;;
5890;SDS011;2971;52.420;7.080;2023-05-24T13:52:56;10.67;;;3.57;;
5890;SDS011;2971;52.420;7.080;2023-05-24T13:55:22;8.10;;;3.53;;
5890;SDS011;2971;52.420;7.080;2023-05-24T13:57:48;9.17;;;3.33;;
5890;SDS011;2971;52.420;7.080;2023-05-24T14:00:13;7.33;;;3.30;;
5890;SDS011;2971;52.420;7.080;2023-05-24T14:02:39;9.27;;;3.70;;
5890;SDS011;2971;52.420;7.080;2023-05-24T14:05:04;7.83;;;3.17;;
5890;SDS011;2971;52.420;7.080;2023-05-24T14:07:30;8.37;;;3.60;;
5890;SDS011;2971;52.420;7.080;2023-05-24T14:09:55;6.73;;;3.20;;
5890;SDS011;2971;52.420;7.080;2023-05-24T14:12:21;7.50;;;3.23;;
5890;SDS011;2971;52.420;7.080;2023-05-24T14:14:46;14.13;;;3.13;;
5890;SDS011;2971;52.420;7.080;2023-05-24T14:17:12;9.70;;;3.30;;
5890;SDS011;2971;52.420;7.080;2023-05-24T14:19:37;8.23;;;3.23;;
5890;SDS011;2971;52.420;7.080;2023-05-24T14:22:02;6.80;;;3.20;;
5890;SDS011;2971;52.420;7.080;2023-05-24T14:24:28;7.77;;;3.47;;
5890;SDS011;2971;52.420;7.080;2023-05-24T14:26:53;9.63;;;3.20;;
5890;SDS011;2971;52.420;7.080;2023-05-24T14:29:19;8.30;;;3.53;;
5890;SDS011;2971;52.420;7.080;2023-05-24T14:31:44;8.30;;;3.63;;
5890;SDS011;2971;52.420;7.080;2023-05-24T14:34:10;6.87;;;3.20;;
5890;SDS011;2971;52.420;7.080;2023-05-24T14:36:38;9.17;;;3.77;;
5890;SDS011;2971;52.420;7.080;2023-05-24T14:39:05;9.73;;;3.13;;
5890;SDS011;2971;52.420;7.080;2023-05-24T14:41:32;8.27;;;3.20;;
5890;SDS011;2971;52.420;7.080;2023-05-24T14:43:58;10.80;;;3.73;;
5890;SDS011;2971;52.420;7.080;2023-05-24T14:46:24;9.47;;;3.53;;
5890;SDS011;2971;52.420;7.080;2023-05-24T14:48:50;8.07;;;3.60;;
5890;SDS011;2971;52.420;7.080;2023-05-24T14:51:16;8.80;;;3.23;;
5890;SDS011;2971;52.420;7.080;2023-05-24T14:53:41;6.97;;;3.27;;
5890;SDS011;2971;52.420;7.080;2023-05-24T14:56:07;8.60;;;3.43;;
5890;SDS011;2971;52.420;7.080;2023-05-24T14:58:34;8.40;;;3.40;;
5890;SDS011;2971;52.420;7.080;2023-05-24T15:01:00;9.80;;;3.23;;
5890;SDS011;2971;52.420;7.080;2023-05-24T15:03:26;10.27;;;3.17;;
5890;SDS011;2971;52.420;7.080;2023-05-24T15:05:52;9.50;;;3.17;;
5890;SDS011;2971;52.420;7.080;2023-05-24T15:08:17;7.77;;;3.67;;
5890;SDS011;2971;52.420;7.080;2023-05-24T15:10:46;13.27;;;4.10;;
5890;SDS011;2971;52.420;7.080;2023-05-24T15:13:11;10.30;;;3.97;;
5890;SDS011;2971;52.420;7.080;2023-05-24T15:15:37;11.43;;;4.70;;
5890;SDS011;2971;52.420;7.080;2023-05-24T15:18:02;9.53;;;4.23;;
5890;SDS011;2971;52.420;7.080;2023-05-24T15:20:28;8.83;;;3.83;;